createdAt,value
2018-12-10T00:02:08.566Z,88.40
2018-12-10T00:04:46.830Z,87.94
2018-12-10T00:07:22.904Z,88.25
2018-12-10T00:09:59.831Z,88.46
2018-12-10T00:12:38.315Z,88.19
2018-12-10T00:15:16.950Z,88.15
2018-12-10T00:17:55.143Z,87.85
2018-12-10T00:20:29.598Z,88.16
2018-12-10T00:23:13.997Z,88.22
2018-12-10T00:25:51.790Z,88.55
2018-12-10T00:28:32.238Z,88.38
2018-12-10T00:31:10.650Z,88.99
2018-12-10T00:33:45.246Z,89.71
2018-12-10T00:36:28.081Z,89.78
2018-12-10T00:39:10.095Z,88.72
2018-12-10T00:44:49.042Z,88.27
2018-12-10T00:47:30.024Z,88.44
2018-12-10T00:50:12.481Z,88.39
2018-12-10T00:52:53.371Z,88.35
2018-12-10T00:55:34.033Z,87.90
2018-12-10T00:58:11.812Z,87.93
2018-12-10T01:00:47.861Z,88.21
2018-12-10T01:03:28.351Z,87.87
2018-12-10T01:06:17.026Z,87.87
2018-12-10T01:08:53.039Z,87.79
2018-12-10T01:11:33.424Z,88.03
2018-12-10T01:17:04.507Z,87.90
2018-12-10T01:19:42.368Z,88.04
2018-12-10T01:22:17.053Z,88.52
2018-12-10T01:25:08.031Z,88.61
2018-12-10T01:27:42.762Z,88.76
2018-12-10T01:30:18.195Z,89.17
2018-12-10T01:32:53.222Z,89.10
2018-12-10T01:35:27.894Z,88.92
2018-12-10T01:38:07.910Z,89.45
2018-12-10T01:40:43.887Z,89.72
2018-12-10T01:43:19.250Z,90.37
2018-12-10T01:45:56.903Z,89.80
2018-12-10T01:51:32.005Z,90.00
2018-12-10T01:54:24.880Z,89.80
2018-12-10T01:57:02.416Z,89.80
2018-12-10T02:05:44.903Z,89.07
2018-12-10T02:08:23.085Z,88.24
2018-12-10T02:10:57.890Z,87.74
2018-12-10T02:13:32.647Z,87.66
2018-12-10T02:16:11.764Z,87.70
2018-12-10T02:18:46.444Z,87.70
2018-12-10T02:21:27.166Z,85.65
2018-12-10T02:24:05.889Z,85.73
2018-12-10T02:26:54.667Z,85.13
2018-12-10T02:29:30.987Z,84.65
2018-12-10T02:32:15.945Z,84.30
2018-12-10T02:34:58.001Z,83.72
2018-12-10T02:37:34.286Z,84.35
2018-12-10T02:40:21.342Z,83.57
2018-12-10T02:42:59.430Z,83.61
2018-12-10T02:45:34.201Z,84.24
2018-12-10T02:48:10.718Z,84.69
2018-12-10T02:50:51.722Z,84.94
2018-12-10T02:53:26.556Z,85.05
2018-12-10T02:56:07.233Z,85.89
2018-12-10T02:58:56.775Z,86.45
2018-12-10T03:01:34.742Z,86.37
2018-12-10T03:07:22.120Z,87.13
2018-12-10T03:10:00.300Z,87.00
2018-12-10T03:12:35.232Z,87.23
2018-12-10T03:15:15.392Z,87.81
2018-12-10T03:17:50.141Z,87.24
2018-12-10T03:20:28.129Z,87.89
2018-12-10T03:25:59.865Z,88.81
2018-12-10T03:28:35.698Z,88.77
2018-12-10T03:31:10.300Z,88.94
2018-12-10T03:33:46.413Z,89.16
2018-12-10T03:36:27.426Z,89.80
2018-12-10T03:39:08.714Z,90.04
2018-12-10T03:41:44.871Z,90.19
2018-12-10T03:44:25.069Z,90.25
2018-12-10T03:47:04.202Z,89.98
2018-12-10T03:49:38.735Z,90.16
2018-12-10T03:52:29.093Z,90.42
2018-12-10T03:55:05.861Z,90.80
2018-12-10T03:57:42.511Z,91.05
2018-12-10T04:00:24.361Z,91.08
2018-12-10T04:03:04.271Z,91.42
2018-12-10T04:05:39.952Z,91.63
2018-12-10T04:08:14.603Z,91.18
2018-12-10T04:10:49.027Z,91.26
2018-12-10T04:13:27.881Z,90.88
2018-12-10T04:16:06.486Z,90.99
2018-12-10T04:18:43.696Z,90.93
2018-12-10T04:21:25.892Z,91.10
2018-12-10T04:24:03.915Z,91.32
2018-12-10T04:26:42.163Z,91.71
2018-12-10T04:29:27.063Z,91.51
2018-12-10T04:32:06.563Z,91.76
2018-12-10T04:34:42.443Z,91.67
2018-12-10T04:37:20.322Z,92.06
2018-12-10T04:40:02.057Z,91.59
2018-12-10T04:42:45.386Z,91.32
2018-12-10T04:45:23.854Z,90.98
2018-12-10T04:48:03.453Z,91.17
2018-12-10T04:50:42.270Z,91.22
2018-12-10T04:53:19.356Z,90.73
2018-12-10T04:55:56.801Z,90.89
2018-12-10T04:58:35.907Z,90.71
2018-12-10T05:01:16.427Z,90.59
2018-12-10T05:03:54.137Z,90.80
2018-12-10T05:06:31.724Z,90.97
2018-12-10T05:09:09.670Z,91.02
2018-12-10T05:11:47.362Z,91.10
2018-12-10T05:14:45.734Z,91.20
2018-12-10T05:17:21.778Z,90.96
2018-12-10T05:19:56.142Z,91.18
2018-12-10T05:22:30.994Z,90.84
2018-12-10T05:25:23.619Z,90.90
2018-12-10T05:28:02.473Z,91.39
2018-12-10T05:30:37.112Z,91.29
2018-12-10T05:33:14.881Z,91.13
2018-12-10T05:35:58.278Z,91.12
2018-12-10T05:38:34.890Z,90.93
2018-12-10T05:41:11.327Z,91.24
2018-12-10T05:43:45.849Z,91.32
2018-12-10T05:49:29.779Z,91.33
2018-12-10T05:52:10.029Z,91.23
2018-12-10T05:54:47.846Z,91.23
2018-12-10T05:57:25.985Z,90.97
2018-12-10T06:00:02.020Z,90.66
2018-12-10T06:02:54.696Z,90.52
2018-12-10T06:05:30.652Z,90.44
2018-12-10T06:08:10.706Z,89.93
2018-12-10T06:10:45.135Z,90.01
2018-12-10T06:13:26.303Z,89.68
2018-12-10T06:16:01.569Z,89.86
2018-12-10T06:21:33.147Z,88.63
2018-12-10T06:24:11.348Z,88.36
2018-12-10T06:26:47.264Z,88.36
2018-12-10T06:29:28.558Z,88.15
2018-12-10T06:35:07.231Z,87.68
2018-12-10T06:37:41.906Z,86.87
2018-12-10T06:40:22.966Z,87.03
2018-12-10T06:43:10.018Z,87.31
2018-12-10T06:45:48.162Z,86.67
2018-12-10T06:48:23.578Z,87.07
2018-12-10T06:51:01.859Z,86.97
2018-12-10T06:53:36.252Z,86.72
2018-12-10T06:56:16.509Z,86.38
2018-12-10T06:59:07.339Z,86.55
2018-12-10T07:01:47.762Z,87.05
2018-12-10T07:04:22.678Z,87.19
2018-12-10T07:07:11.564Z,87.39
2018-12-10T07:09:52.126Z,87.44
2018-12-10T07:12:30.304Z,87.85
2018-12-10T07:15:06.126Z,87.59
2018-12-10T07:17:40.716Z,88.08
2018-12-10T07:20:21.151Z,88.20
2018-12-10T07:23:00.037Z,88.02
2018-12-10T07:25:39.996Z,87.48
2018-12-10T07:28:18.183Z,87.26
2018-12-10T07:30:58.954Z,87.81
2018-12-10T07:33:36.042Z,87.49
2018-12-10T07:36:15.097Z,87.42
2018-12-10T07:38:53.626Z,87.55
2018-12-10T07:41:29.075Z,86.97
2018-12-10T07:44:04.619Z,87.15
2018-12-10T07:46:43.751Z,86.64
2018-12-10T07:49:25.102Z,86.74
2018-12-10T07:52:05.895Z,86.66
2018-12-10T07:54:40.694Z,86.77
2018-12-10T07:57:19.154Z,86.91
2018-12-10T07:59:58.409Z,86.86
2018-12-10T08:02:39.959Z,85.67
2018-12-10T08:05:20.383Z,85.79
2018-12-10T08:07:55.030Z,85.69
2018-12-10T08:13:33.800Z,85.89
2018-12-10T08:16:10.148Z,85.73
2018-12-10T08:18:54.323Z,85.15
2018-12-10T08:21:32.875Z,85.53
2018-12-10T08:24:11.071Z,85.36
2018-12-10T08:26:46.427Z,84.94
2018-12-10T08:29:27.166Z,84.13
2018-12-10T08:32:08.302Z,85.45
2018-12-10T08:34:46.976Z,85.13
2018-12-10T08:37:21.292Z,85.02
2018-12-10T08:40:01.470Z,85.41
2018-12-10T08:42:40.661Z,85.11
2018-12-10T08:45:19.836Z,84.33
2018-12-10T08:48:00.755Z,84.12
2018-12-10T08:50:41.842Z,83.54
2018-12-10T08:53:22.687Z,83.70
2018-12-10T09:03:34.462Z,82.11
2018-12-10T09:06:15.794Z,82.35
2018-12-10T09:08:56.919Z,81.59
2018-12-10T09:11:32.931Z,81.66
2018-12-10T09:14:13.865Z,81.46
2018-12-10T09:16:54.787Z,81.88
2018-12-10T09:19:36.458Z,81.39
2018-12-10T09:22:18.801Z,81.60
2018-12-10T09:24:56.979Z,81.44
2018-12-10T09:27:38.440Z,81.80
2018-12-10T09:30:17.088Z,82.97
2018-12-10T09:32:54.263Z,83.77
2018-12-10T09:35:35.779Z,83.95
2018-12-10T09:38:14.649Z,83.48
2018-12-10T09:40:52.542Z,83.36
2018-12-10T09:43:31.205Z,83.26
2018-12-10T09:46:10.162Z,82.97
2018-12-10T09:48:53.417Z,82.88
2018-12-10T09:51:29.474Z,84.29
2018-12-10T09:54:10.488Z,84.77
2018-12-10T09:56:47.728Z,84.66
2018-12-10T09:59:24.633Z,84.26
2018-12-10T10:02:16.496Z,84.24
2018-12-10T10:07:28.483Z,82.71
2018-12-10T10:10:06.701Z,82.63
2018-12-10T10:12:51.094Z,82.40
2018-12-10T10:15:27.726Z,82.42
2018-12-10T10:18:06.851Z,81.24
2018-12-10T10:21:02.790Z,81.24
2018-12-10T10:23:41.010Z,81.48
2018-12-10T10:29:06.549Z,81.21
2018-12-10T10:31:49.647Z,81.62
2018-12-10T10:34:25.339Z,81.24
2018-12-10T10:37:03.350Z,81.94
2018-12-10T10:39:38.094Z,81.93
2018-12-10T10:42:16.702Z,81.93
2018-12-10T10:44:55.501Z,81.71
2018-12-10T10:47:34.155Z,82.60
2018-12-10T10:50:14.066Z,81.67
2018-12-10T10:52:56.735Z,81.77
2018-12-10T10:55:36.550Z,82.27
2018-12-10T10:58:25.798Z,80.86
2018-12-10T11:01:10.128Z,80.97
2018-12-10T11:03:50.910Z,82.06
2018-12-10T11:06:30.146Z,81.38
2018-12-10T11:09:15.245Z,80.14
2018-12-10T11:11:52.692Z,78.66
2018-12-10T11:14:31.749Z,78.43
2018-12-10T11:17:07.010Z,78.63
2018-12-10T11:19:45.514Z,78.21
2018-12-10T11:22:24.447Z,78.70
2018-12-10T11:25:01.434Z,79.49
2018-12-10T11:27:39.989Z,79.51
2018-12-10T11:30:19.920Z,78.95
2018-12-10T11:33:01.195Z,78.94
2018-12-10T11:35:39.712Z,78.90
2018-12-10T11:38:16.209Z,78.54
2018-12-10T11:40:52.699Z,79.44
2018-12-10T11:43:28.505Z,78.88
2018-12-10T11:46:06.751Z,78.69
2018-12-10T11:48:44.694Z,78.82
2018-12-10T11:51:21.457Z,80.78
2018-12-10T11:54:03.853Z,82.45
2018-12-10T11:56:40.264Z,83.97
2018-12-10T11:59:19.196Z,84.61
2018-12-10T12:01:54.263Z,84.72
2018-12-10T12:04:32.261Z,84.58
2018-12-10T12:07:09.202Z,84.27
2018-12-10T12:09:45.738Z,83.11
2018-12-10T12:12:37.382Z,82.98
2018-12-10T12:15:21.116Z,82.90
2018-12-10T12:17:59.274Z,81.99
2018-12-10T12:20:37.778Z,82.06
2018-12-10T12:23:14.847Z,81.26
2018-12-10T12:25:53.765Z,82.28
2018-12-10T12:28:32.571Z,81.72
2018-12-10T12:31:07.406Z,82.06
2018-12-10T12:33:45.129Z,82.79
2018-12-10T12:36:26.046Z,84.47
2018-12-10T12:39:07.286Z,84.72
2018-12-10T12:41:42.631Z,84.15
2018-12-10T12:44:25.032Z,84.33
2018-12-10T12:46:59.631Z,84.25
2018-12-10T12:49:39.396Z,84.25
2018-12-10T12:52:18.108Z,84.45
2018-12-10T12:55:00.464Z,84.69
2018-12-10T12:57:37.040Z,84.50
2018-12-10T13:00:12.379Z,83.95
2018-12-10T13:02:56.329Z,84.88
2018-12-10T13:08:32.142Z,80.58
2018-12-10T13:11:23.404Z,80.40
2018-12-10T13:14:04.498Z,79.62
2018-12-10T13:16:39.315Z,80.59
2018-12-10T13:19:16.364Z,80.26
2018-12-10T13:22:07.281Z,80.66
2018-12-10T13:24:49.897Z,82.36
2018-12-10T13:27:29.284Z,83.05
2018-12-10T13:32:33.183Z,83.46
2018-12-10T13:38:12.635Z,83.86
2018-12-10T13:40:51.182Z,82.80
2018-12-10T13:43:28.861Z,82.32
2018-12-10T13:49:00.231Z,82.27
2018-12-10T13:51:34.722Z,81.43
2018-12-10T13:54:09.470Z,81.62
2018-12-10T13:56:43.927Z,81.70
2018-12-10T13:59:18.654Z,81.38
2018-12-10T14:01:53.630Z,82.19
2018-12-10T14:04:33.014Z,81.11
2018-12-10T14:07:08.440Z,82.10
2018-12-10T14:09:45.110Z,81.81
2018-12-10T14:12:19.881Z,81.72
2018-12-10T14:14:54.717Z,82.06
2018-12-10T14:17:29.524Z,82.20
2018-12-10T14:20:06.505Z,82.05
2018-12-10T14:22:41.334Z,81.22
2018-12-10T14:25:24.866Z,82.43
2018-12-10T14:28:00.227Z,82.44
2018-12-10T14:30:35.620Z,83.13
2018-12-10T14:33:10.469Z,83.34
2018-12-10T14:35:45.180Z,84.21
2018-12-10T14:38:20.068Z,84.99
2018-12-10T14:40:57.014Z,85.76
2018-12-10T14:43:31.717Z,85.74
2018-12-10T14:46:07.287Z,85.37
2018-12-10T14:48:42.269Z,86.09
2018-12-10T14:51:16.926Z,86.02
2018-12-10T14:53:51.818Z,85.50
2018-12-10T14:56:26.898Z,85.99
2018-12-10T14:59:01.651Z,85.29
2018-12-10T15:01:36.430Z,85.38
2018-12-10T15:04:10.835Z,85.52
2018-12-10T15:06:45.658Z,85.15
2018-12-10T15:09:20.245Z,85.26
2018-12-10T15:11:55.594Z,85.15
2018-12-10T15:14:29.898Z,84.70
2018-12-10T15:17:04.733Z,85.06
2018-12-10T15:19:39.547Z,84.44
2018-12-10T15:22:14.666Z,84.15
2018-12-10T15:24:50.099Z,84.10
2018-12-10T15:27:24.819Z,83.92
2018-12-10T15:29:59.336Z,84.52
2018-12-10T15:32:33.801Z,84.60
2018-12-10T15:35:09.089Z,84.31
2018-12-10T15:37:44.975Z,84.66
2018-12-10T15:40:19.610Z,84.63
2018-12-10T15:42:54.534Z,84.36
2018-12-10T15:45:29.084Z,84.29
2018-12-10T15:48:05.204Z,84.37
2018-12-10T15:50:39.603Z,84.86
2018-12-10T15:53:14.268Z,84.60
2018-12-10T15:55:48.984Z,84.26
2018-12-10T15:58:24.160Z,84.84
2018-12-10T16:00:59.297Z,84.86
2018-12-10T16:03:35.101Z,84.74
2018-12-10T16:06:10.162Z,84.90
2018-12-10T16:08:48.349Z,84.97
2018-12-10T16:11:23.261Z,84.21
2018-12-10T16:13:57.788Z,84.65
2018-12-10T16:16:33.250Z,84.99
2018-12-10T16:25:12.687Z,85.79
2018-12-10T16:27:49.649Z,85.92
2018-12-10T16:30:37.930Z,85.30
2018-12-10T16:33:14.800Z,85.13
2018-12-10T16:38:58.674Z,84.30
2018-12-10T16:41:33.297Z,84.16
2018-12-10T16:44:28.235Z,83.98
2018-12-10T16:47:03.410Z,83.99
2018-12-10T16:49:37.933Z,83.81
2018-12-10T16:55:06.833Z,83.10
2018-12-10T17:00:39.890Z,83.28
2018-12-10T17:03:14.367Z,82.97
2018-12-10T17:05:48.894Z,82.13
2018-12-10T17:08:39.882Z,82.10
2018-12-10T17:14:17.645Z,81.51
2018-12-10T17:16:54.306Z,80.55
2018-12-10T17:19:42.094Z,80.49
2018-12-10T17:22:20.100Z,79.75
2018-12-10T17:27:55.366Z,80.49
2018-12-10T17:30:30.755Z,80.38
2018-12-10T17:39:19.187Z,80.68
2018-12-10T17:41:54.005Z,81.19
2018-12-10T17:44:40.431Z,81.29
2018-12-10T17:53:20.230Z,81.69
2018-12-10T17:55:55.145Z,81.70
2018-12-10T17:58:29.649Z,80.81
2018-12-10T18:01:04.870Z,81.02
2018-12-10T18:03:40.514Z,80.79
2018-12-10T18:06:15.386Z,81.03
2018-12-10T18:08:50.122Z,80.31
2018-12-10T18:11:24.634Z,79.20
2018-12-10T18:13:59.477Z,79.48
2018-12-10T18:19:33.662Z,78.92
2018-12-10T18:22:08.570Z,78.79
2018-12-10T18:24:52.704Z,78.37
2018-12-10T18:27:38.948Z,78.57
2018-12-10T18:30:16.787Z,78.19
2018-12-10T18:35:52.314Z,77.29
2018-12-10T18:38:30.516Z,77.29
2018-12-10T18:41:09.165Z,77.37
2018-12-10T18:43:44.161Z,76.80
2018-12-10T18:46:24.567Z,77.02
2018-12-10T18:49:12.106Z,77.52
2018-12-10T18:51:50.586Z,77.32
2018-12-10T18:54:29.269Z,77.45
2018-12-10T19:00:13.124Z,77.21
2018-12-10T19:06:09.604Z,78.47
2018-12-10T19:09:01.486Z,78.95
2018-12-10T19:11:44.101Z,78.72
2018-12-10T19:14:20.185Z,78.32
2018-12-10T19:16:55.168Z,78.99
2018-12-10T19:25:29.714Z,79.70
2018-12-10T19:28:10.285Z,79.62
2018-12-10T19:30:47.644Z,79.47
2018-12-10T19:33:28.563Z,79.36
2018-12-10T19:36:09.363Z,79.80
2018-12-10T19:39:04.451Z,79.77
2018-12-10T19:44:29.676Z,80.58
2018-12-10T19:50:01.257Z,81.78
2018-12-10T19:52:35.602Z,82.42
2018-12-10T19:55:10.961Z,83.08
2018-12-10T19:57:45.462Z,83.36
2018-12-10T20:00:24.039Z,84.23
2018-12-10T20:03:05.031Z,84.78
2018-12-10T20:05:47.544Z,85.15
2018-12-10T20:08:26.175Z,84.87
2018-12-10T20:11:01.159Z,85.55
2018-12-10T20:13:39.162Z,85.81
2018-12-10T20:16:30.291Z,86.23
2018-12-10T20:19:05.088Z,86.73
2018-12-10T20:21:39.538Z,87.61
2018-12-10T20:24:16.155Z,87.88
2018-12-10T20:26:52.420Z,88.58
2018-12-10T20:29:28.384Z,88.60
2018-12-10T20:32:07.304Z,89.15
2018-12-10T20:34:44.247Z,90.31
2018-12-10T20:37:25.053Z,90.78
2018-12-10T20:40:04.659Z,91.01
2018-12-10T20:42:57.237Z,91.81
2018-12-10T20:45:40.898Z,92.10
2018-12-10T20:51:12.166Z,91.72
2018-12-10T20:53:50.603Z,90.53
2018-12-10T20:56:26.062Z,89.06
2018-12-10T20:59:10.794Z,88.17
2018-12-10T21:01:51.527Z,87.47
2018-12-10T21:04:25.990Z,87.02
2018-12-10T21:10:00.450Z,87.08
2018-12-10T21:12:37.029Z,86.93
2018-12-10T21:15:19.950Z,85.71
2018-12-10T21:17:54.465Z,86.47
2018-12-10T21:20:28.994Z,85.94
2018-12-10T21:23:03.710Z,86.65
2018-12-10T21:25:38.254Z,87.05
2018-12-10T21:28:13.911Z,87.67
2018-12-10T21:30:48.565Z,88.45
2018-12-10T21:33:23.402Z,88.86
2018-12-10T21:35:57.920Z,89.06
2018-12-10T21:38:54.967Z,89.05
2018-12-10T21:41:29.363Z,89.01
2018-12-10T21:44:05.437Z,88.61
2018-12-10T21:46:52.951Z,88.85
2018-12-10T21:55:26.718Z,87.75
2018-12-10T21:58:03.964Z,87.20
2018-12-10T22:00:42.470Z,87.14
2018-12-10T22:06:20.733Z,86.93
2018-12-10T22:09:01.493Z,87.54
2018-12-10T22:11:36.645Z,87.60
2018-12-10T22:14:14.678Z,87.19
2018-12-10T22:16:57.623Z,87.39
2018-12-10T22:19:33.164Z,87.55
2018-12-10T22:22:08.521Z,87.84
2018-12-10T22:24:44.931Z,87.62
2018-12-10T22:27:29.186Z,87.99
2018-12-10T22:30:05.410Z,87.85
2018-12-10T22:32:44.191Z,87.74
2018-12-10T22:35:21.142Z,88.29
2018-12-10T22:38:07.646Z,87.69
2018-12-10T22:40:54.642Z,87.63
2018-12-10T22:43:49.410Z,87.65
2018-12-10T22:46:24.599Z,87.79
2018-12-10T22:49:15.230Z,87.62
2018-12-10T22:54:51.213Z,87.81
2018-12-10T22:57:25.617Z,87.87
2018-12-10T23:00:05.481Z,87.91
2018-12-10T23:02:45.227Z,87.89
2018-12-10T23:05:26.417Z,88.27
2018-12-10T23:08:06.904Z,87.72
2018-12-10T23:10:41.447Z,87.98
2018-12-10T23:13:20.294Z,87.58
2018-12-10T23:15:58.506Z,87.83
2018-12-10T23:18:40.027Z,87.62
2018-12-10T23:21:17.526Z,87.34
2018-12-10T23:23:53.747Z,87.19
2018-12-10T23:26:32.098Z,87.21
2018-12-10T23:29:07.533Z,87.18
2018-12-10T23:31:58.430Z,87.19
2018-12-10T23:37:45.665Z,86.83
2018-12-10T23:40:20.490Z,87.02
2018-12-10T23:43:06.239Z,87.15
2018-12-10T23:45:54.278Z,86.82
2018-12-10T23:48:32.966Z,86.16
2018-12-10T23:51:09.169Z,85.89
2018-12-10T23:53:47.763Z,85.77
2018-12-10T23:56:26.462Z,85.86
2018-12-10T23:59:10.985Z,85.36
